createdAt,value
2018-10-06T00:00:15.178Z,12.50
2018-10-06T00:02:43.370Z,12.50
2018-10-06T00:05:10.791Z,12.40
2018-10-06T00:07:38.851Z,12.40
2018-10-06T00:10:06.962Z,12.40
2018-10-06T00:12:35.047Z,12.40
2018-10-06T00:15:02.454Z,12.30
2018-10-06T00:17:29.854Z,12.30
2018-10-06T00:19:58.102Z,12.30
2018-10-06T00:22:26.953Z,12.20
2018-10-06T00:24:55.330Z,12.20
2018-10-06T00:27:23.986Z,12.10
2018-10-06T00:29:52.071Z,12.10
2018-10-06T00:32:20.127Z,12.10
2018-10-06T00:34:48.546Z,12.20
2018-10-06T00:37:16.626Z,12.20
2018-10-06T00:39:44.727Z,12.10
2018-10-06T00:42:12.779Z,12.10
2018-10-06T00:44:40.945Z,12.20
2018-10-06T00:47:09.031Z,12.30
2018-10-06T00:49:37.270Z,12.30
2018-10-06T00:52:05.458Z,12.20
2018-10-06T00:54:33.555Z,12.10
2018-10-06T00:57:01.711Z,12.00
2018-10-06T00:59:29.838Z,12.00
2018-10-06T01:01:57.911Z,12.10
2018-10-06T01:04:26.021Z,12.10
2018-10-06T01:06:54.071Z,12.10
2018-10-06T01:09:22.126Z,12.10
2018-10-06T01:11:50.195Z,12.10
2018-10-06T01:14:18.250Z,12.00
2018-10-06T01:16:46.318Z,11.90
2018-10-06T01:19:14.398Z,11.90
2018-10-06T01:21:41.841Z,11.80
2018-10-06T01:24:09.525Z,11.80
2018-10-06T01:26:37.599Z,11.70
2018-10-06T01:29:05.722Z,11.60
2018-10-06T01:31:33.118Z,11.60
2018-10-06T01:34:00.867Z,11.50
2018-10-06T01:36:28.254Z,11.40
2018-10-06T01:38:55.642Z,11.40
2018-10-06T01:41:23.037Z,11.30
2018-10-06T01:43:50.431Z,11.20
2018-10-06T01:46:17.842Z,11.20
2018-10-06T01:48:45.233Z,11.10
2018-10-06T01:51:12.704Z,11.10
2018-10-06T01:53:40.049Z,11.10
2018-10-06T01:56:07.457Z,11.00
2018-10-06T01:58:34.882Z,11.00
2018-10-06T02:01:02.282Z,11.00
2018-10-06T02:03:29.690Z,11.10
2018-10-06T02:05:57.099Z,11.10
2018-10-06T02:08:24.587Z,11.10
2018-10-06T02:10:51.994Z,11.10
2018-10-06T02:13:19.397Z,11.20
2018-10-06T02:15:47.053Z,11.20
2018-10-06T02:18:14.446Z,11.30
2018-10-06T02:20:41.854Z,11.40
2018-10-06T02:23:09.514Z,11.50
2018-10-06T02:25:36.974Z,11.50
2018-10-06T02:28:04.372Z,11.50
2018-10-06T02:30:31.762Z,11.60
2018-10-06T02:32:59.162Z,11.60
2018-10-06T02:35:26.698Z,11.60
2018-10-06T02:37:54.249Z,11.60
2018-10-06T02:40:21.678Z,11.70
2018-10-06T02:42:49.082Z,11.70
2018-10-06T02:45:16.490Z,11.70
2018-10-06T02:47:43.894Z,11.70
2018-10-06T02:50:11.980Z,11.70
2018-10-06T02:52:40.075Z,11.60
2018-10-06T02:55:08.138Z,11.60
2018-10-06T02:57:36.223Z,11.50
2018-10-06T03:00:04.379Z,11.50
2018-10-06T03:02:32.445Z,11.50
2018-10-06T03:05:00.511Z,11.50
2018-10-06T03:07:28.595Z,11.50
2018-10-06T03:09:56.794Z,11.60
2018-10-06T03:12:24.866Z,11.60
2018-10-06T03:14:52.955Z,11.60
2018-10-06T03:17:21.039Z,11.60
2018-10-06T03:19:49.110Z,11.70
2018-10-06T03:22:17.186Z,11.70
2018-10-06T03:24:45.248Z,11.70
2018-10-06T03:27:12.658Z,11.70
2018-10-06T03:29:40.735Z,11.70
2018-10-06T03:32:08.810Z,11.60
2018-10-06T03:34:36.922Z,11.50
2018-10-06T03:37:04.994Z,11.50
2018-10-06T03:39:32.406Z,11.40
2018-10-06T03:42:00.478Z,11.30
2018-10-06T03:44:28.566Z,11.20
2018-10-06T03:46:56.647Z,11.10
2018-10-06T03:49:24.745Z,11.10
2018-10-06T03:51:52.794Z,11.00
2018-10-06T03:54:20.870Z,11.00
2018-10-06T03:56:48.967Z,10.90
2018-10-06T03:59:16.364Z,10.90
2018-10-06T04:01:43.766Z,10.80
2018-10-06T04:04:11.178Z,10.80
2018-10-06T04:06:38.582Z,10.70
2018-10-06T04:09:07.125Z,10.70
2018-10-06T04:11:34.535Z,10.60
2018-10-06T04:14:01.923Z,10.60
2018-10-06T04:16:29.322Z,10.60
2018-10-06T04:18:56.726Z,10.60
2018-10-06T04:21:24.138Z,10.60
2018-10-06T04:23:51.526Z,10.50
2018-10-06T04:26:18.917Z,10.50
2018-10-06T04:28:46.413Z,10.50
2018-10-06T04:31:13.810Z,10.40
2018-10-06T04:33:41.250Z,10.40
2018-10-06T04:36:08.670Z,10.40
2018-10-06T04:38:36.097Z,10.40
2018-10-06T04:41:03.485Z,10.40
2018-10-06T04:43:30.893Z,10.40
2018-10-06T04:45:58.302Z,10.40
2018-10-06T04:48:25.719Z,10.50
2018-10-06T04:50:53.127Z,10.50
2018-10-06T04:53:20.628Z,10.60
2018-10-06T04:55:47.945Z,10.60
2018-10-06T04:58:15.352Z,10.60
2018-10-06T05:00:42.758Z,10.70
2018-10-06T05:03:10.204Z,10.80
2018-10-06T05:05:37.786Z,10.90
2018-10-06T05:08:05.386Z,10.80
2018-10-06T05:10:32.783Z,10.80
2018-10-06T05:13:00.161Z,10.70
2018-10-06T05:15:27.559Z,10.70
2018-10-06T05:17:54.954Z,10.70
2018-10-06T05:20:22.372Z,10.60
2018-10-06T05:22:49.761Z,10.50
2018-10-06T05:25:17.187Z,10.50
2018-10-06T05:27:44.586Z,10.50
2018-10-06T05:30:11.982Z,10.40
2018-10-06T05:32:39.401Z,10.40
2018-10-06T05:35:06.823Z,10.40
2018-10-06T05:37:34.228Z,10.40
2018-10-06T05:40:01.610Z,10.40
2018-10-06T05:42:29.034Z,10.30
2018-10-06T05:44:56.435Z,10.30
2018-10-06T05:47:23.823Z,10.40
2018-10-06T05:49:51.222Z,10.40
2018-10-06T05:52:18.639Z,10.60
2018-10-06T05:54:46.034Z,10.60
2018-10-06T05:57:13.437Z,10.60
2018-10-06T05:59:40.834Z,10.70
2018-10-06T06:02:08.241Z,10.70
2018-10-06T06:04:35.642Z,10.70
2018-10-06T06:07:03.066Z,10.70
2018-10-06T06:09:30.450Z,10.70
2018-10-06T06:11:57.855Z,10.80
2018-10-06T06:14:25.246Z,10.80
2018-10-06T06:16:53.312Z,10.70
2018-10-06T06:19:21.371Z,10.80
2018-10-06T06:21:49.430Z,10.80
2018-10-06T06:24:16.871Z,10.80
2018-10-06T06:26:44.926Z,10.90
2018-10-06T06:29:13.003Z,11.00
2018-10-06T06:31:41.081Z,11.10
2018-10-06T06:34:09.148Z,11.20
2018-10-06T06:36:36.554Z,11.20
2018-10-06T06:39:04.279Z,11.30
2018-10-06T06:41:31.702Z,11.30
2018-10-06T06:43:59.164Z,11.40
2018-10-06T06:46:26.494Z,11.40
2018-10-06T06:48:53.897Z,11.50
2018-10-06T06:51:21.334Z,11.50
2018-10-06T06:53:48.746Z,11.50
2018-10-06T06:56:16.891Z,11.50
2018-10-06T06:58:44.315Z,11.50
2018-10-06T07:01:11.717Z,11.60
2018-10-06T07:03:39.117Z,11.70
2018-10-06T07:06:06.510Z,11.70
2018-10-06T07:08:33.950Z,11.80
2018-10-06T07:11:01.339Z,11.90
2018-10-06T07:13:28.848Z,11.90
2018-10-06T07:15:56.259Z,11.90
2018-10-06T07:18:23.657Z,12.00
2018-10-06T07:20:51.054Z,12.00
2018-10-06T07:23:18.454Z,12.10
2018-10-06T07:25:45.950Z,12.10
2018-10-06T07:28:13.354Z,12.10
2018-10-06T07:30:40.775Z,12.10
2018-10-06T07:33:08.178Z,12.10
2018-10-06T07:35:35.681Z,12.10
2018-10-06T07:38:03.149Z,12.10
2018-10-06T07:40:30.605Z,12.20
2018-10-06T07:42:58.995Z,12.20
2018-10-06T07:45:26.450Z,12.20
2018-10-06T07:47:53.894Z,12.30
2018-10-06T07:50:21.364Z,12.40
2018-10-06T07:52:48.818Z,12.40
2018-10-06T07:55:16.254Z,12.50
2018-10-06T07:57:43.732Z,12.60
2018-10-06T08:00:11.159Z,12.70
2018-10-06T08:02:38.642Z,12.80
2018-10-06T08:05:06.136Z,12.90
2018-10-06T08:07:33.541Z,13.10
2018-10-06T08:10:00.942Z,13.20
2018-10-06T08:12:28.340Z,13.40
2018-10-06T08:14:55.817Z,13.60
2018-10-06T08:17:23.223Z,13.70
2018-10-06T08:19:50.638Z,13.80
2018-10-06T08:22:18.081Z,13.90
2018-10-06T08:24:45.537Z,14.00
2018-10-06T08:27:13.007Z,14.10
2018-10-06T08:29:40.452Z,14.30
2018-10-06T08:32:08.038Z,14.40
2018-10-06T08:34:35.425Z,14.50
2018-10-06T08:37:02.814Z,14.60
2018-10-06T08:39:30.201Z,14.70
2018-10-06T08:41:57.641Z,14.80
2018-10-06T08:44:25.049Z,14.90
2018-10-06T08:46:52.446Z,15.00
2018-10-06T08:49:19.905Z,15.10
2018-10-06T08:51:47.302Z,15.30
2018-10-06T08:54:14.688Z,15.40
2018-10-06T08:56:42.070Z,15.60
2018-10-06T08:59:09.458Z,15.70
2018-10-06T09:01:36.850Z,15.90
2018-10-06T09:04:04.398Z,16.10
2018-10-06T09:06:31.768Z,16.40
2018-10-06T09:08:59.173Z,16.70
2018-10-06T09:11:26.582Z,17.00
2018-10-06T09:13:53.996Z,17.20
2018-10-06T09:16:21.436Z,17.40
2018-10-06T09:18:48.837Z,17.60
2018-10-06T09:21:16.235Z,17.50
2018-10-06T09:23:43.641Z,17.50
2018-10-06T09:26:11.050Z,17.60
2018-10-06T09:28:38.462Z,17.70
2018-10-06T09:31:06.118Z,18.00
2018-10-06T09:33:33.521Z,18.20
2018-10-06T09:36:00.910Z,18.30
2018-10-06T09:38:28.306Z,18.50
2018-10-06T09:40:56.090Z,18.60
2018-10-06T09:43:23.498Z,18.90
2018-10-06T09:45:50.952Z,19.20
2018-10-06T09:48:18.378Z,19.40
2018-10-06T09:50:45.774Z,19.70
2018-10-06T09:53:13.182Z,19.90
2018-10-06T09:55:40.577Z,20.10
2018-10-06T09:58:07.971Z,20.40
2018-10-06T10:00:40.958Z,20.70
2018-10-06T10:03:14.002Z,20.90
2018-10-06T10:05:47.015Z,21.10
2018-10-06T10:08:14.415Z,21.20
2018-10-06T10:10:41.782Z,21.40
2018-10-06T10:13:09.183Z,21.60
2018-10-06T10:15:36.574Z,21.60
2018-10-06T10:18:04.020Z,21.50
2018-10-06T10:20:31.376Z,21.50
2018-10-06T10:22:58.907Z,21.60
2018-10-06T10:25:26.410Z,21.60
2018-10-06T10:27:53.802Z,21.70
2018-10-06T10:30:21.319Z,21.60
2018-10-06T10:32:48.722Z,21.70
2018-10-06T10:35:16.126Z,21.70
2018-10-06T10:37:43.535Z,21.70
2018-10-06T10:40:10.926Z,21.80
2018-10-06T10:42:38.322Z,21.80
2018-10-06T10:45:05.751Z,21.80
2018-10-06T10:47:34.184Z,22.00
2018-10-06T10:50:01.594Z,22.20
2018-10-06T10:52:28.983Z,22.40
2018-10-06T10:54:56.391Z,22.60
2018-10-06T10:57:24.130Z,22.70
2018-10-06T10:59:51.707Z,22.80
2018-10-06T11:02:19.010Z,23.10
2018-10-06T11:04:46.452Z,23.40
2018-10-06T11:07:13.829Z,23.40
2018-10-06T11:09:41.221Z,23.40
2018-10-06T11:12:09.018Z,23.50
2018-10-06T11:14:36.454Z,23.70
2018-10-06T11:17:03.900Z,23.50
2018-10-06T11:19:31.241Z,23.30
2018-10-06T11:21:58.629Z,23.30
2018-10-06T11:24:26.021Z,23.60
2018-10-06T11:26:53.482Z,23.70
2018-10-06T11:29:20.890Z,24.00
2018-10-06T11:31:48.298Z,24.10
2018-10-06T11:34:15.723Z,24.10
2018-10-06T11:36:43.129Z,24.00
2018-10-06T11:39:10.954Z,23.90
2018-10-06T11:41:38.606Z,23.80
2018-10-06T11:44:06.014Z,23.70
2018-10-06T11:46:33.417Z,23.80
2018-10-06T11:49:00.821Z,23.90
2018-10-06T11:51:28.231Z,23.90
2018-10-06T11:53:55.674Z,23.80
2018-10-06T11:56:23.061Z,23.60
2018-10-06T11:58:50.450Z,23.70
2018-10-06T12:01:17.866Z,23.70
2018-10-06T12:03:45.259Z,23.80
2018-10-06T12:06:12.662Z,23.90
2018-10-06T12:08:40.060Z,24.30
2018-10-06T12:11:07.582Z,24.60
2018-10-06T12:13:34.978Z,24.90
2018-10-06T12:16:02.390Z,24.90
2018-10-06T12:18:29.920Z,24.50
2018-10-06T12:20:57.310Z,24.30
2018-10-06T12:23:24.713Z,24.10
2018-10-06T12:25:52.212Z,24.10
2018-10-06T12:28:20.214Z,23.90
2018-10-06T12:30:47.606Z,23.90
2018-10-06T12:33:15.003Z,23.80
2018-10-06T12:35:42.428Z,23.70
2018-10-06T12:38:09.782Z,23.70
2018-10-06T12:40:37.182Z,23.70
2018-10-06T12:43:04.670Z,23.70
2018-10-06T12:45:32.090Z,23.80
2018-10-06T12:47:59.470Z,24.10
2018-10-06T12:50:26.858Z,24.20
2018-10-06T12:52:54.246Z,24.30
2018-10-06T12:55:22.315Z,24.20
2018-10-06T12:57:50.395Z,24.20
2018-10-06T13:00:17.786Z,24.20
2018-10-06T13:02:45.177Z,24.20
2018-10-06T13:05:12.575Z,24.20
2018-10-06T13:07:39.966Z,24.20
2018-10-06T13:10:07.362Z,24.20
2018-10-06T13:12:34.774Z,24.20
2018-10-06T13:15:02.179Z,24.20
2018-10-06T13:17:29.558Z,24.20
2018-10-06T13:19:56.966Z,24.10
2018-10-06T13:22:24.574Z,24.10
2018-10-06T13:24:51.966Z,24.10
2018-10-06T13:27:19.361Z,24.20
2018-10-06T13:29:46.753Z,24.30
2018-10-06T13:32:14.166Z,24.40
2018-10-06T13:34:41.557Z,24.60
2018-10-06T13:37:08.942Z,24.70
2018-10-06T13:39:36.342Z,24.70
2018-10-06T13:42:03.734Z,24.80
2018-10-06T13:44:31.161Z,24.90
2018-10-06T13:46:58.554Z,24.90
2018-10-06T13:49:25.960Z,25.00
2018-10-06T13:51:53.350Z,25.00
2018-10-06T13:54:20.737Z,25.00
2018-10-06T13:56:48.778Z,25.10
2018-10-06T13:59:16.182Z,25.20
2018-10-06T14:01:43.606Z,25.80
2018-10-06T14:04:11.030Z,26.20
2018-10-06T14:06:38.477Z,26.30
2018-10-06T14:09:05.906Z,26.50
2018-10-06T14:11:33.313Z,26.50
2018-10-06T14:14:00.738Z,26.40
2018-10-06T14:16:28.169Z,26.30
2018-10-06T14:18:55.611Z,26.10
2018-10-06T14:21:23.021Z,25.60
2018-10-06T14:23:50.525Z,25.10
2018-10-06T14:26:17.969Z,24.90
2018-10-06T14:28:45.336Z,24.80
2018-10-06T14:31:12.746Z,24.60
2018-10-06T14:33:40.161Z,24.40
2018-10-06T14:36:07.583Z,24.30
2018-10-06T14:38:34.984Z,24.00
2018-10-06T14:41:02.710Z,23.80
2018-10-06T14:43:30.357Z,23.70
2018-10-06T14:45:57.758Z,23.60
2018-10-06T14:48:25.170Z,23.50
2018-10-06T14:50:52.577Z,23.50
2018-10-06T14:53:20.013Z,23.30
2018-10-06T14:55:47.403Z,23.20
2018-10-06T14:58:15.491Z,23.10
2018-10-06T15:00:42.911Z,23.10
2018-10-06T15:03:10.298Z,23.00
2018-10-06T15:05:37.724Z,22.90
2018-10-06T15:08:05.379Z,22.80
2018-10-06T15:10:32.786Z,22.70
2018-10-06T15:13:00.250Z,22.60
2018-10-06T15:15:27.666Z,22.50
2018-10-06T15:17:55.063Z,22.50
2018-10-06T15:20:22.465Z,22.40
2018-10-06T15:22:49.926Z,22.30
2018-10-06T15:25:17.332Z,22.20
2018-10-06T15:27:44.737Z,22.20
2018-10-06T15:30:12.171Z,22.10
2018-10-06T15:32:39.633Z,22.00
2018-10-06T15:35:07.108Z,21.90
2018-10-06T15:37:34.534Z,21.80
2018-10-06T15:40:02.026Z,21.80
2018-10-06T15:42:29.438Z,21.70
2018-10-06T15:44:56.943Z,21.70
2018-10-06T15:47:24.446Z,21.60
2018-10-06T15:49:51.864Z,21.60
2018-10-06T15:52:19.311Z,21.50
2018-10-06T15:54:46.730Z,21.50
2018-10-06T15:57:14.131Z,21.40
2018-10-06T15:59:41.530Z,21.40
2018-10-06T16:02:09.622Z,21.30
2018-10-06T16:04:37.006Z,21.30
2018-10-06T16:07:04.434Z,21.20
2018-10-06T16:09:31.847Z,21.10
2018-10-06T16:11:59.268Z,21.10
2018-10-06T16:14:26.687Z,21.00
2018-10-06T16:16:54.095Z,20.90
2018-10-06T16:19:22.183Z,20.80
2018-10-06T16:21:49.610Z,20.80
2018-10-06T16:24:17.031Z,20.70
2018-10-06T16:26:44.446Z,20.60
2018-10-06T16:29:11.829Z,20.60
2018-10-06T16:31:39.242Z,20.50
2018-10-06T16:34:06.655Z,20.40
2018-10-06T16:36:34.062Z,20.30
2018-10-06T16:39:02.129Z,20.30
2018-10-06T16:41:29.554Z,20.20
2018-10-06T16:43:56.990Z,20.20
2018-10-06T16:46:24.398Z,20.10
2018-10-06T16:48:52.334Z,20.10
2018-10-06T16:51:19.751Z,20.00
2018-10-06T16:53:47.153Z,19.90
2018-10-06T16:56:14.589Z,19.90
2018-10-06T16:58:42.018Z,19.90
2018-10-06T17:01:09.453Z,19.80
2018-10-06T17:03:38.402Z,19.80
2018-10-06T17:06:05.813Z,19.80
2018-10-06T17:08:33.194Z,19.70
2018-10-06T17:11:00.614Z,19.60
2018-10-06T17:13:28.010Z,19.60
2018-10-06T17:15:55.509Z,19.60
2018-10-06T17:18:23.022Z,19.50
2018-10-06T17:20:50.380Z,19.40
2018-10-06T17:23:17.785Z,19.30
2018-10-06T17:25:45.249Z,19.30
2018-10-06T17:28:12.698Z,19.20
2018-10-06T17:30:40.130Z,19.20
2018-10-06T17:33:07.521Z,19.20
2018-10-06T17:35:34.941Z,19.10
2018-10-06T17:38:02.345Z,19.10
2018-10-06T17:40:29.746Z,19.00
2018-10-06T17:42:57.150Z,18.90
2018-10-06T17:45:24.602Z,18.90
2018-10-06T17:47:52.012Z,18.70
2018-10-06T17:50:19.480Z,18.60
2018-10-06T17:52:46.810Z,18.50
2018-10-06T17:55:14.206Z,18.40
2018-10-06T17:57:41.606Z,18.30
2018-10-06T18:00:09.015Z,18.20
2018-10-06T18:02:36.415Z,18.10
2018-10-06T18:05:03.955Z,18.10
2018-10-06T18:07:31.252Z,18.00
2018-10-06T18:09:58.676Z,18.00
2018-10-06T18:12:26.427Z,17.90
2018-10-06T18:14:53.827Z,17.80
2018-10-06T18:17:21.322Z,17.80
2018-10-06T18:19:48.802Z,17.80
2018-10-06T18:22:16.318Z,17.70
2018-10-06T18:24:46.454Z,17.70
2018-10-06T18:27:16.157Z,17.60
2018-10-06T18:29:44.118Z,17.60
2018-10-06T18:32:11.723Z,17.60
2018-10-06T18:34:40.756Z,17.60
2018-10-06T18:37:09.020Z,17.60
2018-10-06T18:39:36.357Z,17.70
2018-10-06T18:42:03.802Z,17.70
2018-10-06T18:44:31.306Z,17.70
2018-10-06T18:46:58.701Z,17.60
2018-10-06T18:49:26.198Z,17.60
2018-10-06T18:51:53.494Z,17.40
2018-10-06T18:54:20.878Z,17.30
2018-10-06T18:56:48.254Z,17.30
2018-10-06T18:59:15.642Z,17.30
2018-10-06T19:01:43.030Z,17.30
2018-10-06T19:04:10.547Z,17.30
2018-10-06T19:06:37.809Z,17.20
2018-10-06T19:09:06.054Z,17.20
2018-10-06T19:11:33.473Z,17.20
2018-10-06T19:14:00.862Z,17.20
2018-10-06T19:16:28.337Z,17.20
2018-10-06T19:18:55.633Z,17.10
2018-10-06T19:21:23.038Z,17.10
2018-10-06T19:23:50.429Z,17.10
2018-10-06T19:26:17.838Z,17.10
2018-10-06T19:28:45.238Z,17.20
2018-10-06T19:31:12.725Z,17.20
2018-10-06T19:33:40.207Z,17.20
2018-10-06T19:36:07.684Z,17.20
2018-10-06T19:38:35.138Z,17.20
2018-10-06T19:41:02.526Z,17.20
2018-10-06T19:43:29.927Z,17.20
2018-10-06T19:45:57.401Z,17.20
2018-10-06T19:48:24.738Z,17.20
2018-10-06T19:50:52.130Z,17.20
2018-10-06T19:53:19.534Z,17.10
2018-10-06T19:55:47.013Z,17.10
2018-10-06T19:58:14.422Z,17.00
2018-10-06T20:00:41.798Z,17.00
2018-10-06T20:03:09.291Z,16.90
2018-10-06T20:05:36.670Z,16.80
2018-10-06T20:08:04.083Z,16.80
2018-10-06T20:10:31.545Z,16.70
2018-10-06T20:12:59.014Z,16.80
2018-10-06T20:15:26.410Z,16.70
2018-10-06T20:17:53.831Z,16.70
2018-10-06T20:20:21.218Z,16.60
2018-10-06T20:22:48.630Z,16.60
2018-10-06T20:25:16.022Z,16.60
2018-10-06T20:27:43.409Z,16.50
2018-10-06T20:30:10.814Z,16.50
2018-10-06T20:32:38.197Z,16.40
2018-10-06T20:35:05.610Z,16.40
2018-10-06T20:37:33.018Z,16.40
2018-10-06T20:40:00.449Z,16.30
2018-10-06T20:42:27.838Z,16.30
2018-10-06T20:44:55.398Z,16.30
2018-10-06T20:47:22.801Z,16.30
2018-10-06T20:49:50.202Z,16.30
2018-10-06T20:52:17.621Z,16.30
2018-10-06T20:54:45.082Z,16.30
2018-10-06T20:57:12.558Z,16.30
2018-10-06T20:59:39.992Z,16.30
2018-10-06T21:02:07.463Z,16.20
2018-10-06T21:04:34.865Z,16.30
2018-10-06T21:07:02.268Z,16.20
2018-10-06T21:09:29.674Z,16.20
2018-10-06T21:11:57.071Z,16.20
2018-10-06T21:14:24.472Z,16.10
2018-10-06T21:16:51.858Z,16.10
2018-10-06T21:19:19.274Z,16.10
2018-10-06T21:21:46.690Z,16.10
2018-10-06T21:24:14.079Z,16.10
2018-10-06T21:26:41.478Z,16.00
2018-10-06T21:29:08.953Z,16.00
2018-10-06T21:31:36.265Z,16.00
2018-10-06T21:34:03.685Z,15.90
2018-10-06T21:36:31.082Z,15.80
2018-10-06T21:38:58.493Z,15.90
2018-10-06T21:41:25.883Z,15.90
2018-10-06T21:43:53.282Z,15.90
2018-10-06T21:46:20.718Z,15.80
2018-10-06T21:48:48.203Z,15.70
2018-10-06T21:51:15.591Z,15.80
2018-10-06T21:53:43.005Z,15.70
2018-10-06T21:56:10.418Z,15.70
2018-10-06T21:58:37.854Z,15.70
2018-10-06T22:01:10.508Z,15.70
2018-10-06T22:03:38.391Z,15.70
2018-10-06T22:06:05.922Z,15.60
2018-10-06T22:08:33.314Z,15.60
2018-10-06T22:11:00.726Z,15.60
2018-10-06T22:13:28.406Z,15.60
2018-10-06T22:15:55.814Z,15.60
2018-10-06T22:18:23.206Z,15.50
2018-10-06T22:20:50.615Z,15.60
2018-10-06T22:23:18.014Z,15.50
2018-10-06T22:25:45.693Z,15.50
2018-10-06T22:28:13.077Z,15.50
2018-10-06T22:30:40.478Z,15.40
2018-10-06T22:33:08.062Z,15.50
2018-10-06T22:35:35.462Z,15.50
2018-10-06T22:38:02.894Z,15.50
2018-10-06T22:40:30.277Z,15.50
2018-10-06T22:42:57.945Z,15.40
2018-10-06T22:45:25.329Z,15.50
2018-10-06T22:47:52.738Z,15.50
2018-10-06T22:50:20.145Z,15.50
2018-10-06T22:52:47.537Z,15.40
2018-10-06T22:55:15.098Z,15.40
2018-10-06T22:57:42.498Z,15.30
2018-10-06T23:00:09.890Z,15.30
2018-10-06T23:02:37.306Z,15.40
2018-10-06T23:05:04.705Z,15.40
2018-10-06T23:07:32.085Z,15.40
2018-10-06T23:09:59.490Z,15.40
2018-10-06T23:12:26.886Z,15.40
2018-10-06T23:14:54.290Z,15.40
2018-10-06T23:17:21.711Z,15.30
2018-10-06T23:19:49.234Z,15.30
2018-10-06T23:22:16.642Z,15.30
2018-10-06T23:24:44.058Z,15.20
2018-10-06T23:27:11.445Z,15.20
2018-10-06T23:29:38.982Z,15.10
2018-10-06T23:32:06.369Z,15.10
2018-10-06T23:34:33.766Z,15.00
2018-10-06T23:37:01.202Z,15.00
2018-10-06T23:39:28.630Z,15.10
2018-10-06T23:41:56.014Z,15.20
2018-10-06T23:44:23.417Z,15.20
2018-10-06T23:46:50.809Z,15.20
2018-10-06T23:49:18.212Z,15.20
2018-10-06T23:51:45.613Z,15.10
2018-10-06T23:54:13.009Z,15.00
2018-10-06T23:56:40.398Z,15.00
2018-10-06T23:59:07.786Z,14.90
